createdAt,value
2022-09-18T00:01:18.182Z,1.26
2022-09-18T00:03:45.805Z,1.31
2022-09-18T00:06:16.779Z,1.21
2022-09-18T00:08:43.808Z,1.11
2022-09-18T00:11:12.804Z,1.30
2022-09-18T00:13:41.295Z,1.22
2022-09-18T00:16:10.264Z,1.14
2022-09-18T00:18:37.069Z,1.08
2022-09-18T00:21:09.333Z,1.25
2022-09-18T00:23:36.104Z,1.18
2022-09-18T00:26:03.907Z,1.17
2022-09-18T00:28:30.523Z,1.29
2022-09-18T00:31:23.855Z,1.12
2022-09-18T00:33:50.380Z,1.23
2022-09-18T00:36:17.881Z,1.29
2022-09-18T00:38:45.655Z,1.28
2022-09-18T00:41:16.731Z,1.06
2022-09-18T00:43:43.469Z,1.10
2022-09-18T00:46:26.376Z,1.03
2022-09-18T00:49:01.757Z,1.06
2022-09-18T00:51:30.999Z,1.29
2022-09-18T00:54:19.382Z,1.59
2022-09-18T00:56:48.606Z,1.25
2022-09-18T00:59:24.015Z,1.10
2022-09-18T01:01:50.656Z,1.07
2022-09-18T01:04:17.391Z,1.12
2022-09-18T01:06:56.893Z,1.14
2022-09-18T01:09:50.867Z,1.05
2022-09-18T01:12:40.880Z,1.06
2022-09-18T01:15:47.193Z,1.06
2022-09-18T01:18:31.447Z,1.05
2022-09-18T01:21:07.613Z,1.05
2022-09-18T01:23:49.184Z,1.11
2022-09-18T01:26:15.682Z,1.27
2022-09-18T01:28:59.143Z,1.19
2022-09-18T01:31:31.097Z,1.13
2022-09-18T01:34:13.836Z,1.10
2022-09-18T01:36:47.773Z,1.09
2022-09-18T01:39:26.941Z,0.98
2022-09-18T01:41:56.130Z,1.08
2022-09-18T01:44:30.215Z,1.16
2022-09-18T01:47:00.365Z,1.17
2022-09-18T01:49:39.144Z,1.09
2022-09-18T01:52:16.417Z,1.24
2022-09-18T01:54:48.554Z,1.14
2022-09-18T01:57:20.499Z,1.11
2022-09-18T02:00:04.306Z,0.99
2022-09-18T02:02:43.754Z,1.19
2022-09-18T02:05:18.256Z,1.01
2022-09-18T02:08:06.701Z,0.92
2022-09-18T02:10:39.702Z,1.05
2022-09-18T02:13:11.395Z,0.96
2022-09-18T02:15:41.505Z,1.04
2022-09-18T02:18:21.088Z,1.13
2022-09-18T02:20:48.339Z,1.00
2022-09-18T02:23:16.615Z,1.04
2022-09-18T02:25:53.706Z,1.01
2022-09-18T02:28:25.197Z,1.05
2022-09-18T02:30:51.766Z,0.98
2022-09-18T02:33:33.180Z,1.06
2022-09-18T02:36:30.893Z,1.05
2022-09-18T02:39:27.211Z,1.11
2022-09-18T02:42:22.030Z,1.00
2022-09-18T02:44:54.659Z,1.14
2022-09-18T02:47:49.019Z,1.09
2022-09-18T02:50:26.877Z,1.08
2022-09-18T02:53:27.989Z,1.10
2022-09-18T02:56:01.238Z,1.04
2022-09-18T02:58:46.674Z,1.08
2022-09-18T03:01:17.482Z,1.26
2022-09-18T03:03:44.047Z,1.14
2022-09-18T03:06:10.536Z,1.33
2022-09-18T03:08:37.201Z,1.31
2022-09-18T03:11:04.411Z,1.20
2022-09-18T03:13:30.958Z,1.23
2022-09-18T03:15:58.075Z,1.13
2022-09-18T03:18:24.634Z,0.97
2022-09-18T03:20:51.143Z,1.12
2022-09-18T03:23:17.695Z,1.05
2022-09-18T03:25:44.156Z,1.10
2022-09-18T03:28:10.651Z,1.03
2022-09-18T03:30:37.221Z,1.03
2022-09-18T03:33:03.784Z,1.07
2022-09-18T03:35:30.273Z,1.13
2022-09-18T03:37:56.740Z,1.19
2022-09-18T03:40:23.290Z,1.14
2022-09-18T03:42:49.809Z,1.01
2022-09-18T03:45:16.309Z,1.13
2022-09-18T03:47:42.773Z,1.15
2022-09-18T03:50:09.653Z,1.09
2022-09-18T03:52:36.186Z,1.09
2022-09-18T03:55:02.802Z,1.09
2022-09-18T03:57:29.268Z,1.23
2022-09-18T03:59:55.774Z,1.16
2022-09-18T04:02:22.264Z,1.23
2022-09-18T04:04:48.833Z,1.22
2022-09-18T04:07:15.403Z,1.20
2022-09-18T04:09:41.918Z,1.20
2022-09-18T04:12:08.403Z,1.31
2022-09-18T04:14:35.035Z,1.22
2022-09-18T04:17:01.520Z,1.05
2022-09-18T04:19:27.988Z,1.25
2022-09-18T04:21:54.484Z,1.24
2022-09-18T04:24:20.974Z,1.06
2022-09-18T04:26:47.540Z,1.31
2022-09-18T04:29:14.078Z,1.21
2022-09-18T04:31:40.616Z,1.19
2022-09-18T04:34:07.154Z,1.19
2022-09-18T04:36:33.646Z,1.15
2022-09-18T04:39:00.271Z,1.32
2022-09-18T04:41:26.790Z,1.28
2022-09-18T04:43:53.317Z,1.16
2022-09-18T04:46:19.910Z,1.19
2022-09-18T04:48:49.309Z,1.46
2022-09-18T04:51:16.491Z,1.41
2022-09-18T04:53:43.009Z,1.46
2022-09-18T04:56:09.561Z,1.34
2022-09-18T04:58:36.026Z,1.38
2022-09-18T05:01:02.763Z,1.42
2022-09-18T05:03:30.281Z,1.50
2022-09-18T05:05:56.865Z,1.28
2022-09-18T05:08:23.973Z,1.16
2022-09-18T05:10:50.588Z,1.25
2022-09-18T05:13:17.097Z,1.15
2022-09-18T05:15:43.626Z,1.05
2022-09-18T05:18:11.992Z,1.17
2022-09-18T05:20:38.867Z,1.09
2022-09-18T05:23:05.794Z,1.30
2022-09-18T05:25:32.549Z,1.24
2022-09-18T05:28:01.774Z,1.26
2022-09-18T05:30:29.727Z,1.30
2022-09-18T05:33:02.521Z,1.33
2022-09-18T05:35:32.020Z,1.09
2022-09-18T05:37:58.649Z,1.09
2022-09-18T05:40:28.180Z,1.05
2022-09-18T05:42:54.680Z,1.18
2022-09-18T05:45:22.054Z,1.24
2022-09-18T05:47:57.399Z,1.18
2022-09-18T05:50:25.424Z,1.24
2022-09-18T05:53:03.773Z,1.17
2022-09-18T05:55:32.252Z,1.17
2022-09-18T05:58:00.837Z,1.25
2022-09-18T06:00:30.055Z,1.24
2022-09-18T06:02:59.223Z,1.26
2022-09-18T06:05:28.120Z,1.36
2022-09-18T06:07:59.075Z,1.30
2022-09-18T06:10:26.906Z,1.20
2022-09-18T06:13:11.192Z,1.36
2022-09-18T06:15:37.800Z,1.36
2022-09-18T06:18:05.834Z,1.44
2022-09-18T06:20:32.348Z,1.40
2022-09-18T06:23:00.506Z,1.56
2022-09-18T06:25:28.387Z,1.61
2022-09-18T06:28:00.012Z,1.67
2022-09-18T06:30:32.218Z,1.48
2022-09-18T06:33:08.664Z,1.27
2022-09-18T06:35:36.651Z,1.21
2022-09-18T06:38:05.073Z,1.42
2022-09-18T06:40:33.044Z,1.41
2022-09-18T06:43:01.559Z,1.28
2022-09-18T06:45:29.630Z,1.26
2022-09-18T06:48:01.055Z,1.07
2022-09-18T06:50:27.660Z,0.96
2022-09-18T06:52:54.126Z,1.03
2022-09-18T06:55:20.575Z,1.09
2022-09-18T06:57:57.058Z,1.03
2022-09-18T07:00:24.981Z,0.96
2022-09-18T07:03:02.198Z,1.20
2022-09-18T07:05:32.629Z,1.28
2022-09-18T07:07:59.756Z,1.17
2022-09-18T07:10:26.454Z,1.14
2022-09-18T07:12:56.958Z,1.24
2022-09-18T07:15:23.416Z,1.30
2022-09-18T07:17:49.848Z,1.12
2022-09-18T07:20:16.450Z,1.03
2022-09-18T07:22:47.277Z,0.91
2022-09-18T07:25:14.099Z,1.01
2022-09-18T07:27:40.562Z,1.19
2022-09-18T07:30:07.425Z,1.56
2022-09-18T07:32:35.463Z,1.16
2022-09-18T07:35:01.987Z,1.17
2022-09-18T07:37:28.454Z,1.15
2022-09-18T07:39:54.942Z,1.06
2022-09-18T07:42:21.499Z,1.00
2022-09-18T07:44:47.944Z,1.15
2022-09-18T07:47:14.398Z,0.94
2022-09-18T07:49:40.958Z,1.21
2022-09-18T07:52:07.456Z,1.12
2022-09-18T07:54:34.866Z,1.03
2022-09-18T07:57:01.319Z,1.13
2022-09-18T07:59:27.770Z,1.27
2022-09-18T08:01:54.285Z,0.97
2022-09-18T08:04:21.696Z,1.05
2022-09-18T08:06:52.147Z,1.18
2022-09-18T08:09:18.865Z,1.11
2022-09-18T08:11:46.055Z,1.02
2022-09-18T08:14:12.667Z,0.98
2022-09-18T08:16:39.209Z,1.07
2022-09-18T08:19:05.754Z,1.10
2022-09-18T08:21:32.260Z,1.17
2022-09-18T08:23:58.741Z,0.89
2022-09-18T08:26:25.189Z,1.09
2022-09-18T08:28:51.732Z,1.02
2022-09-18T08:31:18.241Z,1.38
2022-09-18T08:33:45.554Z,1.08
2022-09-18T08:36:12.091Z,0.87
2022-09-18T08:38:38.539Z,1.07
2022-09-18T08:41:21.279Z,0.98
2022-09-18T08:44:05.820Z,1.05
2022-09-18T08:46:41.551Z,1.23
2022-09-18T08:49:23.310Z,1.11
2022-09-18T08:52:10.891Z,1.07
2022-09-18T08:54:44.955Z,1.32
2022-09-18T08:57:17.904Z,1.62
2022-09-18T08:59:55.254Z,1.52
2022-09-18T09:02:47.364Z,1.40
2022-09-18T09:05:21.329Z,1.31
2022-09-18T09:08:06.758Z,1.14
2022-09-18T09:10:51.832Z,1.23
2022-09-18T09:13:49.072Z,1.15
2022-09-18T09:16:28.388Z,1.25
2022-09-18T09:19:32.115Z,1.17
2022-09-18T09:22:40.236Z,1.16
2022-09-18T09:25:34.622Z,1.06
2022-09-18T09:28:18.149Z,1.15
2022-09-18T09:30:50.992Z,1.25
2022-09-18T09:33:37.758Z,1.22
2022-09-18T09:36:13.474Z,1.30
2022-09-18T09:39:05.924Z,1.17
2022-09-18T09:41:51.794Z,1.31
2022-09-18T09:44:25.097Z,1.05
2022-09-18T09:47:19.326Z,1.34
2022-09-18T09:50:10.575Z,1.32
2022-09-18T09:52:41.771Z,1.43
2022-09-18T09:55:19.533Z,1.35
2022-09-18T09:58:01.278Z,1.12
2022-09-18T10:00:38.109Z,1.63
2022-09-18T10:03:24.781Z,1.25
2022-09-18T10:06:11.406Z,1.28
2022-09-18T10:08:44.135Z,1.32
2022-09-18T10:11:14.043Z,1.28
2022-09-18T10:13:52.558Z,1.54
2022-09-18T10:16:27.497Z,1.20
2022-09-18T10:18:54.111Z,1.11
2022-09-18T10:21:42.428Z,1.17
2022-09-18T10:24:19.225Z,1.27
2022-09-18T10:26:59.218Z,1.22
2022-09-18T10:29:25.795Z,1.15
2022-09-18T10:31:58.901Z,1.22
2022-09-18T10:34:38.862Z,1.24
2022-09-18T10:37:14.624Z,1.41
2022-09-18T10:42:54.343Z,1.53
2022-09-18T10:45:25.297Z,1.33
2022-09-18T10:48:06.301Z,1.37
2022-09-18T10:50:34.515Z,1.25
2022-09-18T10:53:33.941Z,1.16
2022-09-18T10:56:15.290Z,1.28
2022-09-18T10:58:41.787Z,1.50
2022-09-18T11:01:10.855Z,1.54
2022-09-18T11:03:58.033Z,1.30
2022-09-18T11:06:28.319Z,1.15
2022-09-18T11:09:00.004Z,1.15
2022-09-18T11:11:35.991Z,1.26
2022-09-18T11:14:06.825Z,1.41
2022-09-18T11:16:42.083Z,1.36
2022-09-18T11:19:12.067Z,1.55
2022-09-18T11:21:48.853Z,1.27
2022-09-18T11:24:31.105Z,1.47
2022-09-18T11:27:00.409Z,1.31
2022-09-18T11:29:39.076Z,1.27
2022-09-18T11:32:20.734Z,1.28
2022-09-18T11:35:01.496Z,1.20
2022-09-18T11:37:36.820Z,1.34
2022-09-18T11:40:16.361Z,1.25
2022-09-18T11:42:46.817Z,1.02
2022-09-18T11:45:34.289Z,1.32
2022-09-18T11:48:27.497Z,1.21
2022-09-18T11:51:04.508Z,1.12
2022-09-18T11:53:44.382Z,1.34
2022-09-18T11:56:46.529Z,1.23
2022-09-18T11:59:29.697Z,1.61
2022-09-18T12:02:05.591Z,1.35
2022-09-18T12:04:52.851Z,1.27
2022-09-18T12:07:41.877Z,1.41
2022-09-18T12:10:24.192Z,1.28
2022-09-18T12:13:18.053Z,1.27
2022-09-18T12:15:56.788Z,1.33
2022-09-18T12:18:36.751Z,1.38
2022-09-18T12:21:13.937Z,1.23
2022-09-18T12:23:41.039Z,1.07
2022-09-18T12:26:58.557Z,1.31
2022-09-18T12:30:01.692Z,1.27
2022-09-18T12:32:49.509Z,1.29
2022-09-18T12:35:25.342Z,1.41
2022-09-18T12:38:06.885Z,1.34
2022-09-18T12:40:52.399Z,1.21
2022-09-18T12:43:26.396Z,1.08
2022-09-18T12:45:58.609Z,1.19
2022-09-18T12:48:36.801Z,1.12
2022-09-18T12:51:26.179Z,1.34
2022-09-18T12:54:06.847Z,1.22
2022-09-18T12:57:01.357Z,1.36
2022-09-18T12:59:52.149Z,1.13
2022-09-18T13:02:51.387Z,1.55
2022-09-18T13:05:29.436Z,1.27
2022-09-18T13:08:21.416Z,1.18
2022-09-18T13:10:53.290Z,1.07
2022-09-18T13:13:39.794Z,1.14
2022-09-18T13:16:17.603Z,1.27
2022-09-18T13:19:13.115Z,1.04
2022-09-18T13:21:43.715Z,0.98
2022-09-18T13:24:22.305Z,0.94
2022-09-18T13:26:51.991Z,1.00
2022-09-18T13:29:46.124Z,1.08
2022-09-18T13:32:16.857Z,1.02
2022-09-18T13:35:14.042Z,0.95
2022-09-18T13:37:42.665Z,0.87
2022-09-18T13:40:34.108Z,0.89
2022-09-18T13:43:17.706Z,0.91
2022-09-18T13:45:44.182Z,0.94
2022-09-18T13:48:22.885Z,1.05
2022-09-18T13:50:57.483Z,0.98
2022-09-18T13:53:53.975Z,0.77
2022-09-18T13:56:20.484Z,0.90
2022-09-18T13:58:48.644Z,0.88
2022-09-18T14:01:41.073Z,0.81
2022-09-18T14:04:42.113Z,0.76
2022-09-18T14:07:17.344Z,0.73
2022-09-18T14:09:51.226Z,0.73
2022-09-18T14:12:19.579Z,0.87
2022-09-18T14:15:00.251Z,0.99
2022-09-18T14:17:28.212Z,1.08
2022-09-18T14:20:00.372Z,0.82
2022-09-18T14:22:30.808Z,0.91
2022-09-18T14:24:59.862Z,0.82
2022-09-18T14:27:55.777Z,0.86
2022-09-18T14:30:30.602Z,0.86
2022-09-18T14:33:14.799Z,0.77
2022-09-18T14:35:57.380Z,0.84
2022-09-18T14:38:38.275Z,0.94
2022-09-18T14:41:24.631Z,0.92
2022-09-18T14:43:55.476Z,0.93
2022-09-18T14:46:24.718Z,1.01
2022-09-18T14:48:52.095Z,0.88
2022-09-18T14:51:24.905Z,0.83
2022-09-18T14:53:54.806Z,0.91
2022-09-18T14:56:29.452Z,0.87
2022-09-18T14:58:59.968Z,0.73
2022-09-18T15:01:32.142Z,0.99
2022-09-18T15:04:03.812Z,1.10
2022-09-18T15:06:38.279Z,0.96
2022-09-18T15:09:10.431Z,0.77
2022-09-18T15:12:01.449Z,0.83
2022-09-18T15:14:41.531Z,0.81
2022-09-18T15:17:23.026Z,0.77
2022-09-18T15:20:14.677Z,0.78
2022-09-18T15:22:41.487Z,0.64
2022-09-18T15:25:23.375Z,0.79
2022-09-18T15:27:53.374Z,0.67
2022-09-18T15:30:22.841Z,0.80
2022-09-18T15:32:56.093Z,0.71
2022-09-18T15:35:36.517Z,0.73
2022-09-18T15:38:17.082Z,0.69
2022-09-18T15:40:45.762Z,0.88
2022-09-18T15:43:30.217Z,0.95
2022-09-18T15:46:26.153Z,0.97
2022-09-18T15:48:53.734Z,0.87
2022-09-18T15:51:35.243Z,0.92
2022-09-18T15:54:10.936Z,0.92
2022-09-18T15:56:48.042Z,0.96
2022-09-18T15:59:33.690Z,0.80
2022-09-18T16:02:04.280Z,0.79
2022-09-18T16:04:33.334Z,0.97
2022-09-18T16:07:05.007Z,0.73
2022-09-18T16:09:43.326Z,0.90
2022-09-18T16:12:29.637Z,0.90
2022-09-18T16:15:07.088Z,1.07
2022-09-18T16:17:37.093Z,1.36
2022-09-18T16:20:22.529Z,1.02
2022-09-18T16:22:56.718Z,1.01
2022-09-18T16:25:27.079Z,0.94
2022-09-18T16:27:56.179Z,0.89
2022-09-18T16:30:27.365Z,0.92
2022-09-18T16:33:18.297Z,1.00
2022-09-18T16:35:46.947Z,0.74
2022-09-18T16:38:13.624Z,0.84
2022-09-18T16:40:41.942Z,1.10
2022-09-18T16:43:08.445Z,1.22
2022-09-18T16:45:34.956Z,1.13
2022-09-18T16:48:01.740Z,1.05
2022-09-18T16:50:28.263Z,0.95
2022-09-18T16:52:57.510Z,1.15
2022-09-18T16:55:26.400Z,1.13
2022-09-18T16:57:53.321Z,1.09
2022-09-18T17:00:19.946Z,0.87
2022-09-18T17:02:46.559Z,0.98
2022-09-18T17:05:13.099Z,1.00
2022-09-18T17:07:39.571Z,1.11
2022-09-18T17:10:06.450Z,1.06
2022-09-18T17:12:33.070Z,1.14
2022-09-18T17:14:59.519Z,1.08
2022-09-18T17:17:26.001Z,1.13
2022-09-18T17:19:52.535Z,1.28
2022-09-18T17:22:22.450Z,1.35
2022-09-18T17:24:49.455Z,1.18
2022-09-18T17:27:15.973Z,1.37
2022-09-18T17:29:42.451Z,1.39
2022-09-18T17:32:09.139Z,1.74
2022-09-18T17:34:35.847Z,1.55
2022-09-18T17:37:02.417Z,1.55
2022-09-18T17:39:29.057Z,1.58
2022-09-18T17:41:55.553Z,1.42
2022-09-18T17:44:22.967Z,1.36
2022-09-18T17:46:50.095Z,1.68
2022-09-18T17:49:17.162Z,1.51
2022-09-18T17:51:43.633Z,1.50
2022-09-18T17:54:11.174Z,1.55
2022-09-18T17:56:38.011Z,1.51
2022-09-18T17:59:08.630Z,1.62
2022-09-18T18:01:37.855Z,1.63
2022-09-18T18:04:05.352Z,1.83
2022-09-18T18:06:32.762Z,1.76
2022-09-18T18:08:59.223Z,1.90
2022-09-18T18:11:25.991Z,2.02
2022-09-18T18:13:54.011Z,2.09
2022-09-18T18:16:23.923Z,1.99
2022-09-18T18:18:53.750Z,2.43
2022-09-18T18:21:21.292Z,2.41
2022-09-18T18:23:47.745Z,2.43
2022-09-18T18:26:14.350Z,2.52
2022-09-18T18:28:41.514Z,2.49
2022-09-18T18:31:10.877Z,2.18
2022-09-18T18:33:39.707Z,2.23
2022-09-18T18:36:14.059Z,2.27
2022-09-18T18:38:42.595Z,2.55
2022-09-18T18:41:10.667Z,2.46
2022-09-18T18:43:39.128Z,2.40
2022-09-18T18:46:06.096Z,2.30
2022-09-18T18:48:32.904Z,2.31
2022-09-18T18:51:04.728Z,2.22
2022-09-18T18:53:31.495Z,2.28
2022-09-18T18:56:02.494Z,2.30
2022-09-18T18:58:29.134Z,1.93
2022-09-18T19:00:56.031Z,2.57
2022-09-18T19:03:23.019Z,2.80
2022-09-18T19:08:38.064Z,2.26
2022-09-18T19:11:05.874Z,2.16
2022-09-18T19:16:18.296Z,2.18
2022-09-18T19:18:50.424Z,2.06
2022-09-18T19:23:57.531Z,2.14
2022-09-18T19:26:26.342Z,2.04
2022-09-18T19:28:56.274Z,2.10
2022-09-18T19:42:42.452Z,1.94
2022-09-18T19:45:11.210Z,1.85
2022-09-18T19:47:44.473Z,1.81
2022-09-18T19:50:21.393Z,1.70
2022-09-18T19:52:51.509Z,1.76
2022-09-18T19:55:23.143Z,1.74
2022-09-18T19:57:53.046Z,1.56
2022-09-18T20:00:20.580Z,1.44
2022-09-18T20:02:47.082Z,1.50
2022-09-18T20:05:13.614Z,1.38
2022-09-18T20:07:40.789Z,1.37
2022-09-18T20:10:10.907Z,1.56
2022-09-18T20:12:40.093Z,1.37
2022-09-18T20:15:09.195Z,1.60
2022-09-18T20:17:36.652Z,1.44
2022-09-18T20:20:08.608Z,1.40
2022-09-18T20:22:35.578Z,1.47
2022-09-18T20:25:02.224Z,1.35
2022-09-18T20:27:28.968Z,1.30
2022-09-18T20:29:55.514Z,1.47
2022-09-18T20:32:22.059Z,1.42
2022-09-18T20:34:48.649Z,1.24
2022-09-18T20:37:15.391Z,1.26
2022-09-18T20:39:42.364Z,1.39
2022-09-18T20:42:09.367Z,1.37
2022-09-18T20:44:36.723Z,1.33
2022-09-18T20:47:04.672Z,1.31
2022-09-18T20:49:31.446Z,1.33
2022-09-18T20:51:59.558Z,1.25
2022-09-18T20:54:27.761Z,1.46
2022-09-18T20:56:54.658Z,1.17
2022-09-18T20:59:21.576Z,1.17
2022-09-18T21:01:48.672Z,1.31
2022-09-18T21:04:18.403Z,1.32
2022-09-18T21:06:52.405Z,1.29
2022-09-18T21:17:59.663Z,1.18
2022-09-18T21:35:33.148Z,1.09
2022-09-18T21:38:00.262Z,1.19
2022-09-18T21:40:27.809Z,1.09
2022-09-18T21:42:55.097Z,0.97
2022-09-18T21:50:47.959Z,1.07
2022-09-18T21:53:15.094Z,0.84
2022-09-18T21:55:42.156Z,0.97
2022-09-18T21:58:09.037Z,0.98
2022-09-18T22:00:35.701Z,1.02
2022-09-18T22:03:02.274Z,0.89
2022-09-18T22:05:28.785Z,0.88
2022-09-18T22:07:56.995Z,0.94
2022-09-18T22:10:27.153Z,0.77
2022-09-18T22:12:57.851Z,0.89
2022-09-18T22:18:18.743Z,0.90
2022-09-18T22:20:46.090Z,0.73
2022-09-18T22:23:15.852Z,0.74
2022-09-18T22:25:43.872Z,0.94
2022-09-18T22:28:11.355Z,0.88
2022-09-18T22:39:06.889Z,0.85
2022-09-18T22:41:36.459Z,0.81
2022-09-18T22:44:04.044Z,0.83
2022-09-18T22:46:31.360Z,0.75
2022-09-18T22:49:01.114Z,0.83
2022-09-18T22:51:28.575Z,0.84
2022-09-18T22:54:13.555Z,0.72
2022-09-18T23:02:34.142Z,0.69
2022-09-18T23:05:01.673Z,0.66
2022-09-18T23:07:28.517Z,0.75
2022-09-18T23:09:55.206Z,0.76
2022-09-18T23:12:22.086Z,0.79
2022-09-18T23:17:24.031Z,0.76
2022-09-18T23:19:50.842Z,0.76
2022-09-18T23:31:16.797Z,0.86
2022-09-18T23:36:25.399Z,0.82
2022-09-18T23:38:57.747Z,0.77
2022-09-18T23:41:26.309Z,0.77
2022-09-18T23:43:54.830Z,0.87
2022-09-18T23:46:23.382Z,0.93
2022-09-18T23:48:50.388Z,0.84
2022-09-18T23:51:16.990Z,0.82
